sensor_id;sensor_type;location;lat;lon;timestamp;noise_LAeq;noise_LA_min;noise_LA_max;noise_LA01;noise_LA95
64079;Laerm;51042;49.696;10.808;2023-04-25T00:01:02;45.67;42.54;60.95;;
64079;Laerm;51042;49.696;10.808;2023-04-25T00:03:28;47.68;42.72;65.62;;
64079;Laerm;51042;49.696;10.808;2023-04-25T00:05:54;45.87;42.90;61.57;;
64079;Laerm;51042;49.696;10.808;2023-04-25T00:08:22;45.25;42.77;54.57;;
64079;Laerm;51042;49.696;10.808;2023-04-25T00:10:47;44.88;42.49;52.04;;
64079;Laerm;51042;49.696;10.808;2023-04-25T00:13:14;45.23;42.67;56.65;;
64079;Laerm;51042;49.696;10.808;2023-04-25T00:15:39;44.88;42.32;50.37;;
64079;Laerm;51042;49.696;10.808;2023-04-25T00:18:06;47.56;42.64;66.72;;
64079;Laerm;51042;49.696;10.808;2023-04-25T00:20:32;46.37;41.90;63.49;;
64079;Laerm;51042;49.696;10.808;2023-04-25T00:22:57;45.29;42.61;58.62;;
64079;Laerm;51042;49.696;10.808;2023-04-25T00:25:23;44.83;42.24;54.29;;
64079;Laerm;51042;49.696;10.808;2023-04-25T00:27:48;60.44;42.78;78.90;;
64079;Laerm;51042;49.696;10.808;2023-04-25T00:30:14;52.31;41.64;69.13;;
64079;Laerm;51042;49.696;10.808;2023-04-25T00:32:39;64.49;42.71;80.02;;
64079;Laerm;51042;49.696;10.808;2023-04-25T00:35:05;45.22;42.10;60.38;;
64079;Laerm;51042;49.696;10.808;2023-04-25T00:37:31;51.42;42.06;68.24;;
64079;Laerm;51042;49.696;10.808;2023-04-25T00:39:57;47.96;42.15;62.26;;
64079;Laerm;51042;49.696;10.808;2023-04-25T00:42:24;59.38;42.61;76.51;;
64079;Laerm;51042;49.696;10.808;2023-04-25T00:44:51;45.33;42.25;58.12;;
64079;Laerm;51042;49.696;10.808;2023-04-25T00:47:17;46.14;41.68;69.16;;
64079;Laerm;51042;49.696;10.808;2023-04-25T00:49:42;45.47;42.04;58.27;;
64079;Laerm;51042;49.696;10.808;2023-04-25T00:52:08;45.03;42.32;52.39;;
64079;Laerm;51042;49.696;10.808;2023-04-25T00:54:33;45.65;42.40;59.73;;
64079;Laerm;51042;49.696;10.808;2023-04-25T00:56:59;51.53;42.69;74.97;;
64079;Laerm;51042;49.696;10.808;2023-04-25T00:59:25;48.33;42.37;71.33;;
64079;Laerm;51042;49.696;10.808;2023-04-25T01:01:52;52.13;42.08;74.44;;
64079;Laerm;51042;49.696;10.808;2023-04-25T01:04:18;46.04;42.34;62.05;;
64079;Laerm;51042;49.696;10.808;2023-04-25T01:06:43;48.71;42.22;68.87;;
64079;Laerm;51042;49.696;10.808;2023-04-25T01:09:09;44.91;42.08;51.18;;
64079;Laerm;51042;49.696;10.808;2023-04-25T01:11:34;53.84;42.89;71.26;;
64079;Laerm;51042;49.696;10.808;2023-04-25T01:14:00;45.84;42.58;60.82;;
64079;Laerm;51042;49.696;10.808;2023-04-25T01:16:27;66.89;42.48;84.34;;
64079;Laerm;51042;49.696;10.808;2023-04-25T01:18:53;44.86;42.11;52.35;;
64079;Laerm;51042;49.696;10.808;2023-04-25T01:21:19;44.86;42.46;48.52;;
64079;Laerm;51042;49.696;10.808;2023-04-25T01:23:44;45.08;42.13;54.90;;
64079;Laerm;51042;49.696;10.808;2023-04-25T01:26:11;45.31;42.53;61.81;;
64079;Laerm;51042;49.696;10.808;2023-04-25T01:28:38;45.17;41.96;58.35;;
64079;Laerm;51042;49.696;10.808;2023-04-25T01:31:06;44.59;42.04;48.86;;
64079;Laerm;51042;49.696;10.808;2023-04-25T01:33:31;46.36;41.28;64.76;;
64079;Laerm;51042;49.696;10.808;2023-04-25T01:35:57;44.55;41.72;51.37;;
64079;Laerm;51042;49.696;10.808;2023-04-25T01:38:23;45.08;41.81;59.45;;
64079;Laerm;51042;49.696;10.808;2023-04-25T01:40:49;46.80;41.92;62.43;;
64079;Laerm;51042;49.696;10.808;2023-04-25T01:43:15;45.17;41.38;61.99;;
64079;Laerm;51042;49.696;10.808;2023-04-25T01:45:41;44.20;41.73;47.21;;
64079;Laerm;51042;49.696;10.808;2023-04-25T01:48:08;44.62;41.22;53.13;;
64079;Laerm;51042;49.696;10.808;2023-04-25T01:50:34;44.30;41.50;47.93;;
64079;Laerm;51042;49.696;10.808;2023-04-25T01:53:00;54.38;41.98;70.84;;
64079;Laerm;51042;49.696;10.808;2023-04-25T01:55:27;44.82;41.71;52.71;;
64079;Laerm;51042;49.696;10.808;2023-04-25T01:57:52;48.62;41.21;63.77;;
64079;Laerm;51042;49.696;10.808;2023-04-25T02:00:17;44.90;41.92;56.23;;
64079;Laerm;51042;49.696;10.808;2023-04-25T02:02:43;44.18;41.50;47.19;;
64079;Laerm;51042;49.696;10.808;2023-04-25T02:05:08;45.11;41.75;62.87;;
64079;Laerm;51042;49.696;10.808;2023-04-25T02:07:34;51.78;41.38;67.13;;
64079;Laerm;51042;49.696;10.808;2023-04-25T02:09:59;51.57;41.98;71.67;;
64079;Laerm;51042;49.696;10.808;2023-04-25T02:12:25;49.44;41.60;65.18;;
64079;Laerm;51042;49.696;10.808;2023-04-25T02:14:51;50.36;41.48;67.17;;
64079;Laerm;51042;49.696;10.808;2023-04-25T02:17:16;48.41;41.69;63.86;;
64079;Laerm;51042;49.696;10.808;2023-04-25T02:19:42;44.61;41.13;57.51;;
64079;Laerm;51042;49.696;10.808;2023-04-25T02:22:08;43.57;41.16;46.02;;
64079;Laerm;51042;49.696;10.808;2023-04-25T02:24:33;46.04;41.03;60.13;;
64079;Laerm;51042;49.696;10.808;2023-04-25T02:27:00;48.13;41.79;63.12;;
64079;Laerm;51042;49.696;10.808;2023-04-25T02:29:25;48.00;41.18;64.05;;
64079;Laerm;51042;49.696;10.808;2023-04-25T02:31:50;48.58;41.85;65.67;;
64079;Laerm;51042;49.696;10.808;2023-04-25T02:34:15;56.36;41.99;71.38;;
64079;Laerm;51042;49.696;10.808;2023-04-25T02:36:41;47.41;41.59;63.70;;
64079;Laerm;51042;49.696;10.808;2023-04-25T02:39:06;54.32;41.56;71.03;;
64079;Laerm;51042;49.696;10.808;2023-04-25T02:41:31;46.01;41.67;59.57;;
64079;Laerm;51042;49.696;10.808;2023-04-25T02:43:57;51.35;41.91;68.25;;
64079;Laerm;51042;49.696;10.808;2023-04-25T02:46:22;51.06;41.93;66.97;;
64079;Laerm;51042;49.696;10.808;2023-04-25T02:48:48;63.28;41.58;77.98;;
64079;Laerm;51042;49.696;10.808;2023-04-25T02:51:13;49.80;41.65;64.75;;
64079;Laerm;51042;49.696;10.808;2023-04-25T02:53:39;50.09;41.31;65.68;;
64079;Laerm;51042;49.696;10.808;2023-04-25T02:56:04;58.81;42.20;74.27;;
64079;Laerm;51042;49.696;10.808;2023-04-25T02:58:30;56.77;41.84;74.04;;
64079;Laerm;51042;49.696;10.808;2023-04-25T03:00:55;53.94;41.48;66.18;;
64079;Laerm;51042;49.696;10.808;2023-04-25T03:03:21;53.86;42.27;70.05;;
64079;Laerm;51042;49.696;10.808;2023-04-25T03:05:51;55.66;42.45;70.27;;
64079;Laerm;51042;49.696;10.808;2023-04-25T03:08:17;53.14;42.78;66.52;;
64079;Laerm;51042;49.696;10.808;2023-04-25T03:10:43;47.19;42.44;60.52;;
64079;Laerm;51042;49.696;10.808;2023-04-25T03:13:09;55.27;42.58;69.81;;
64079;Laerm;51042;49.696;10.808;2023-04-25T03:15:35;55.64;42.52;70.93;;
64079;Laerm;51042;49.696;10.808;2023-04-25T03:18:01;55.45;42.67;68.16;;
64079;Laerm;51042;49.696;10.808;2023-04-25T03:20:26;57.15;43.07;70.63;;
64079;Laerm;51042;49.696;10.808;2023-04-25T03:22:52;55.91;43.32;68.64;;
64079;Laerm;51042;49.696;10.808;2023-04-25T03:25:17;57.81;44.01;68.60;;
64079;Laerm;51042;49.696;10.808;2023-04-25T03:27:42;59.54;44.43;69.60;;
64079;Laerm;51042;49.696;10.808;2023-04-25T03:30:08;53.11;43.79;66.59;;
64079;Laerm;51042;49.696;10.808;2023-04-25T03:32:34;54.91;43.74;69.62;;
64079;Laerm;51042;49.696;10.808;2023-04-25T03:35:00;61.34;44.09;77.01;;
64079;Laerm;51042;49.696;10.808;2023-04-25T03:37:25;60.70;44.51;71.54;;
64079;Laerm;51042;49.696;10.808;2023-04-25T03:39:50;60.62;44.04;71.61;;
64079;Laerm;51042;49.696;10.808;2023-04-25T03:42:16;62.61;44.80;73.48;;
64079;Laerm;51042;49.696;10.808;2023-04-25T03:44:41;63.65;46.33;72.70;;
64079;Laerm;51042;49.696;10.808;2023-04-25T03:47:06;64.26;48.63;73.22;;
64079;Laerm;51042;49.696;10.808;2023-04-25T03:49:32;63.49;46.15;73.73;;
64079;Laerm;51042;49.696;10.808;2023-04-25T03:51:58;63.11;45.19;71.86;;
64079;Laerm;51042;49.696;10.808;2023-04-25T03:54:23;62.82;44.92;73.33;;
64079;Laerm;51042;49.696;10.808;2023-04-25T03:56:48;63.79;44.61;77.77;;
64079;Laerm;51042;49.696;10.808;2023-04-25T03:59:14;62.06;45.25;76.85;;
64079;Laerm;51042;49.696;10.808;2023-04-25T04:01:39;56.86;45.77;73.44;;
64079;Laerm;51042;49.696;10.808;2023-04-25T04:04:04;65.37;46.98;74.92;;
64079;Laerm;51042;49.696;10.808;2023-04-25T04:06:30;66.20;50.87;75.92;;
64079;Laerm;51042;49.696;10.808;2023-04-25T04:08:55;69.95;49.38;89.12;;
64079;Laerm;51042;49.696;10.808;2023-04-25T04:11:21;59.49;45.87;72.83;;
64079;Laerm;51042;49.696;10.808;2023-04-25T04:13:47;64.74;45.98;79.71;;
64079;Laerm;51042;49.696;10.808;2023-04-25T04:16:12;64.59;45.42;77.30;;
64079;Laerm;51042;49.696;10.808;2023-04-25T04:18:37;59.17;46.05;71.94;;
64079;Laerm;51042;49.696;10.808;2023-04-25T04:21:02;59.91;45.63;71.13;;
64079;Laerm;51042;49.696;10.808;2023-04-25T04:23:28;62.15;44.91;75.19;;
64079;Laerm;51042;49.696;10.808;2023-04-25T04:25:55;59.17;44.05;69.30;;
64079;Laerm;51042;49.696;10.808;2023-04-25T04:28:21;64.30;43.42;78.01;;
64079;Laerm;51042;49.696;10.808;2023-04-25T04:30:47;63.22;44.46;72.99;;
64079;Laerm;51042;49.696;10.808;2023-04-25T04:33:12;63.53;45.75;74.58;;
64079;Laerm;51042;49.696;10.808;2023-04-25T04:35:37;60.56;43.73;73.61;;
64079;Laerm;51042;49.696;10.808;2023-04-25T04:38:03;61.80;44.88;73.54;;
64079;Laerm;51042;49.696;10.808;2023-04-25T04:40:28;60.54;43.87;74.89;;
64079;Laerm;51042;49.696;10.808;2023-04-25T04:42:55;63.86;44.58;76.09;;
64079;Laerm;51042;49.696;10.808;2023-04-25T04:45:22;65.04;46.49;78.26;;
64079;Laerm;51042;49.696;10.808;2023-04-25T04:47:48;61.93;44.64;75.22;;
64079;Laerm;51042;49.696;10.808;2023-04-25T04:50:13;60.74;43.79;77.73;;
64079;Laerm;51042;49.696;10.808;2023-04-25T04:52:40;63.10;45.40;75.43;;
64079;Laerm;51042;49.696;10.808;2023-04-25T04:55:06;60.09;45.78;72.89;;
64079;Laerm;51042;49.696;10.808;2023-04-25T04:57:31;63.04;46.82;76.24;;
64079;Laerm;51042;49.696;10.808;2023-04-25T04:59:58;66.43;47.60;82.27;;
64079;Laerm;51042;49.696;10.808;2023-04-25T05:02:23;62.29;44.43;74.47;;
64079;Laerm;51042;49.696;10.808;2023-04-25T05:04:48;61.15;45.40;78.98;;
64079;Laerm;51042;49.696;10.808;2023-04-25T05:07:15;64.90;45.46;80.18;;
64079;Laerm;51042;49.696;10.808;2023-04-25T05:09:40;64.08;44.25;77.66;;
64079;Laerm;51042;49.696;10.808;2023-04-25T05:12:06;63.05;43.80;78.40;;
64079;Laerm;51042;49.696;10.808;2023-04-25T05:14:31;62.66;44.34;74.44;;
64079;Laerm;51042;49.696;10.808;2023-04-25T05:16:57;66.19;45.55;80.05;;
64079;Laerm;51042;49.696;10.808;2023-04-25T05:19:23;61.84;43.48;76.70;;
64079;Laerm;51042;49.696;10.808;2023-04-25T05:21:48;67.00;49.15;81.77;;
64079;Laerm;51042;49.696;10.808;2023-04-25T05:24:14;62.05;45.18;73.24;;
64079;Laerm;51042;49.696;10.808;2023-04-25T05:26:39;62.39;44.39;72.25;;
64079;Laerm;51042;49.696;10.808;2023-04-25T05:29:04;63.31;46.87;83.09;;
64079;Laerm;51042;49.696;10.808;2023-04-25T05:31:31;65.69;49.03;75.64;;
64079;Laerm;51042;49.696;10.808;2023-04-25T05:33:56;62.10;46.24;74.34;;
64079;Laerm;51042;49.696;10.808;2023-04-25T05:36:22;62.99;45.33;73.27;;
64079;Laerm;51042;49.696;10.808;2023-04-25T05:38:47;65.17;46.02;79.73;;
64079;Laerm;51042;49.696;10.808;2023-04-25T05:41:12;64.82;44.91;80.75;;
64079;Laerm;51042;49.696;10.808;2023-04-25T05:43:38;62.67;44.79;74.78;;
64079;Laerm;51042;49.696;10.808;2023-04-25T05:46:03;60.51;44.35;74.99;;
64079;Laerm;51042;49.696;10.808;2023-04-25T05:48:28;66.17;48.72;84.54;;
64079;Laerm;51042;49.696;10.808;2023-04-25T05:50:54;62.82;46.12;73.81;;
64079;Laerm;51042;49.696;10.808;2023-04-25T05:53:20;64.46;44.70;75.44;;
64079;Laerm;51042;49.696;10.808;2023-04-25T05:55:46;64.42;46.18;79.84;;
64079;Laerm;51042;49.696;10.808;2023-04-25T05:58:11;64.09;45.94;74.06;;
64079;Laerm;51042;49.696;10.808;2023-04-25T06:00:37;59.86;44.29;71.16;;
64079;Laerm;51042;49.696;10.808;2023-04-25T06:03:02;62.31;45.56;73.56;;
64079;Laerm;51042;49.696;10.808;2023-04-25T06:05:28;61.03;42.83;74.13;;
64079;Laerm;51042;49.696;10.808;2023-04-25T06:07:53;59.24;44.08;70.73;;
64079;Laerm;51042;49.696;10.808;2023-04-25T06:10:18;63.07;43.70;81.69;;
64079;Laerm;51042;49.696;10.808;2023-04-25T06:12:44;67.01;42.84;82.54;;
64079;Laerm;51042;49.696;10.808;2023-04-25T06:15:10;63.04;45.80;73.38;;
64079;Laerm;51042;49.696;10.808;2023-04-25T06:17:35;62.20;44.63;74.60;;
64079;Laerm;51042;49.696;10.808;2023-04-25T06:20:01;62.56;45.92;75.83;;
64079;Laerm;51042;49.696;10.808;2023-04-25T06:22:27;64.36;46.53;82.22;;
64079;Laerm;51042;49.696;10.808;2023-04-25T06:24:52;62.34;43.42;75.35;;
64079;Laerm;51042;49.696;10.808;2023-04-25T06:27:17;63.87;46.54;86.14;;
64079;Laerm;51042;49.696;10.808;2023-04-25T06:29:43;61.30;42.94;77.95;;
64079;Laerm;51042;49.696;10.808;2023-04-25T06:32:08;60.16;46.77;74.17;;
64079;Laerm;51042;49.696;10.808;2023-04-25T06:34:33;62.43;46.98;73.48;;
64079;Laerm;51042;49.696;10.808;2023-04-25T06:36:58;64.10;48.01;77.19;;
64079;Laerm;51042;49.696;10.808;2023-04-25T06:39:24;63.39;45.34;74.63;;
64079;Laerm;51042;49.696;10.808;2023-04-25T06:41:50;70.60;50.07;86.55;;
64079;Laerm;51042;49.696;10.808;2023-04-25T06:44:16;62.20;44.16;74.23;;
64079;Laerm;51042;49.696;10.808;2023-04-25T06:46:41;65.82;44.15;86.25;;
64079;Laerm;51042;49.696;10.808;2023-04-25T06:49:06;60.65;44.06;74.51;;
64079;Laerm;51042;49.696;10.808;2023-04-25T06:51:32;62.22;44.26;72.31;;
64079;Laerm;51042;49.696;10.808;2023-04-25T06:53:57;62.33;44.13;78.79;;
64079;Laerm;51042;49.696;10.808;2023-04-25T06:56:23;63.30;45.25;74.16;;
64079;Laerm;51042;49.696;10.808;2023-04-25T06:58:48;63.78;44.90;73.44;;
64079;Laerm;51042;49.696;10.808;2023-04-25T07:01:14;65.59;43.55;84.47;;
64079;Laerm;51042;49.696;10.808;2023-04-25T07:03:39;62.53;44.89;74.22;;
64079;Laerm;51042;49.696;10.808;2023-04-25T07:06:05;60.82;44.41;72.40;;
64079;Laerm;51042;49.696;10.808;2023-04-25T07:08:30;61.12;44.41;71.07;;
64079;Laerm;51042;49.696;10.808;2023-04-25T07:10:56;62.03;43.36;73.06;;
64079;Laerm;51042;49.696;10.808;2023-04-25T07:13:21;67.60;44.61;88.79;;
64079;Laerm;51042;49.696;10.808;2023-04-25T07:15:46;64.32;45.48;77.81;;
64079;Laerm;51042;49.696;10.808;2023-04-25T07:18:13;70.01;44.47;90.51;;
64079;Laerm;51042;49.696;10.808;2023-04-25T07:20:38;66.04;45.43;81.24;;
64079;Laerm;51042;49.696;10.808;2023-04-25T07:23:04;64.62;49.31;77.72;;
64079;Laerm;51042;49.696;10.808;2023-04-25T07:25:29;63.35;44.20;75.81;;
64079;Laerm;51042;49.696;10.808;2023-04-25T07:27:55;63.46;43.21;74.04;;
64079;Laerm;51042;49.696;10.808;2023-04-25T07:30:20;62.15;45.85;74.84;;
64079;Laerm;51042;49.696;10.808;2023-04-25T07:32:46;65.32;45.85;80.28;;
64079;Laerm;51042;49.696;10.808;2023-04-25T07:35:11;63.39;45.27;77.15;;
64079;Laerm;51042;49.696;10.808;2023-04-25T07:37:36;61.86;45.07;74.40;;
64079;Laerm;51042;49.696;10.808;2023-04-25T07:40:02;65.02;47.78;76.35;;
64079;Laerm;51042;49.696;10.808;2023-04-25T07:42:29;64.03;46.38;76.32;;
64079;Laerm;51042;49.696;10.808;2023-04-25T07:44:54;62.19;45.89;74.77;;
64079;Laerm;51042;49.696;10.808;2023-04-25T07:47:20;69.58;46.06;88.09;;
64079;Laerm;51042;49.696;10.808;2023-04-25T07:49:45;66.15;45.93;85.03;;
64079;Laerm;51042;49.696;10.808;2023-04-25T07:52:11;62.76;44.30;78.16;;
64079;Laerm;51042;49.696;10.808;2023-04-25T07:54:36;64.64;45.83;78.83;;
64079;Laerm;51042;49.696;10.808;2023-04-25T07:57:01;65.05;44.53;78.99;;
64079;Laerm;51042;49.696;10.808;2023-04-25T07:59:27;61.51;45.45;75.27;;
64079;Laerm;51042;49.696;10.808;2023-04-25T08:01:52;64.34;46.10;78.39;;
64079;Laerm;51042;49.696;10.808;2023-04-25T08:04:18;60.93;43.96;77.42;;
64079;Laerm;51042;49.696;10.808;2023-04-25T08:06:43;65.52;46.76;79.32;;
64079;Laerm;51042;49.696;10.808;2023-04-25T08:09:09;61.16;42.26;73.63;;
64079;Laerm;51042;49.696;10.808;2023-04-25T08:11:35;63.27;43.19;78.89;;
64079;Laerm;51042;49.696;10.808;2023-04-25T08:14:00;64.19;46.54;78.89;;
64079;Laerm;51042;49.696;10.808;2023-04-25T08:16:26;66.36;44.80;82.18;;
64079;Laerm;51042;49.696;10.808;2023-04-25T08:18:52;71.10;45.00;93.67;;
64079;Laerm;51042;49.696;10.808;2023-04-25T08:21:17;67.71;43.76;87.31;;
64079;Laerm;51042;49.696;10.808;2023-04-25T08:23:42;67.66;46.62;87.92;;
64079;Laerm;51042;49.696;10.808;2023-04-25T08:26:07;70.44;45.36;94.73;;
64079;Laerm;51042;49.696;10.808;2023-04-25T08:28:33;63.17;44.37;79.79;;
64079;Laerm;51042;49.696;10.808;2023-04-25T08:30:58;60.17;43.18;73.95;;
64079;Laerm;51042;49.696;10.808;2023-04-25T08:33:24;62.49;45.14;78.71;;
64079;Laerm;51042;49.696;10.808;2023-04-25T08:35:50;65.67;43.22;85.13;;
64079;Laerm;51042;49.696;10.808;2023-04-25T08:38:15;67.70;44.78;84.58;;
64079;Laerm;51042;49.696;10.808;2023-04-25T08:40:43;62.35;44.03;76.58;;
64079;Laerm;51042;49.696;10.808;2023-04-25T08:43:09;62.87;43.06;78.21;;
64079;Laerm;51042;49.696;10.808;2023-04-25T08:45:41;61.61;43.83;75.38;;
64079;Laerm;51042;49.696;10.808;2023-04-25T08:48:11;66.04;44.75;77.02;;
64079;Laerm;51042;49.696;10.808;2023-04-25T08:50:43;64.58;47.13;78.01;;
64079;Laerm;51042;49.696;10.808;2023-04-25T08:53:12;63.88;45.86;80.98;;
64079;Laerm;51042;49.696;10.808;2023-04-25T08:55:41;70.01;44.39;95.35;;
64079;Laerm;51042;49.696;10.808;2023-04-25T08:58:07;61.24;43.44;79.09;;
64079;Laerm;51042;49.696;10.808;2023-04-25T09:00:35;62.33;43.28;73.01;;
64079;Laerm;51042;49.696;10.808;2023-04-25T09:03:00;63.41;43.60;83.98;;
64079;Laerm;51042;49.696;10.808;2023-04-25T09:05:26;67.82;44.17;83.97;;
64079;Laerm;51042;49.696;10.808;2023-04-25T09:07:53;66.23;45.00;82.94;;
64079;Laerm;51042;49.696;10.808;2023-04-25T09:10:19;63.56;43.65;77.81;;
64079;Laerm;51042;49.696;10.808;2023-04-25T09:12:44;65.53;45.50;80.21;;
64079;Laerm;51042;49.696;10.808;2023-04-25T09:15:11;60.91;44.32;82.10;;
64079;Laerm;51042;49.696;10.808;2023-04-25T09:17:37;67.69;48.00;83.58;;
64079;Laerm;51042;49.696;10.808;2023-04-25T09:20:13;62.50;46.99;81.16;;
64079;Laerm;51042;49.696;10.808;2023-04-25T09:22:39;62.92;46.25;82.86;;
64079;Laerm;51042;49.696;10.808;2023-04-25T09:25:11;64.20;45.76;77.62;;
64079;Laerm;51042;49.696;10.808;2023-04-25T09:27:50;76.16;51.00;93.62;;
64079;Laerm;51042;49.696;10.808;2023-04-25T09:30:16;59.85;44.51;73.57;;
64079;Laerm;51042;49.696;10.808;2023-04-25T09:32:43;60.74;44.04;74.65;;
64079;Laerm;51042;49.696;10.808;2023-04-25T09:35:08;63.30;45.07;75.73;;
64079;Laerm;51042;49.696;10.808;2023-04-25T09:37:34;67.21;44.90;85.16;;
64079;Laerm;51042;49.696;10.808;2023-04-25T09:40:05;72.04;46.20;96.86;;
64079;Laerm;51042;49.696;10.808;2023-04-25T09:42:31;77.30;49.89;92.52;;
64079;Laerm;51042;49.696;10.808;2023-04-25T09:44:57;66.06;44.78;89.11;;
64079;Laerm;51042;49.696;10.808;2023-04-25T09:47:25;67.57;44.84;85.36;;
64079;Laerm;51042;49.696;10.808;2023-04-25T09:49:51;63.25;47.55;81.11;;
64079;Laerm;51042;49.696;10.808;2023-04-25T09:52:22;64.92;46.01;92.53;;
64079;Laerm;51042;49.696;10.808;2023-04-25T09:54:48;63.68;45.15;84.20;;
64079;Laerm;51042;49.696;10.808;2023-04-25T09:57:24;67.04;44.97;84.17;;
64079;Laerm;51042;49.696;10.808;2023-04-25T09:59:50;62.98;44.84;80.24;;
64079;Laerm;51042;49.696;10.808;2023-04-25T10:02:18;64.44;45.49;78.72;;
64079;Laerm;51042;49.696;10.808;2023-04-25T10:04:48;72.79;44.97;95.93;;
64079;Laerm;51042;49.696;10.808;2023-04-25T10:07:14;66.61;45.70;84.04;;
64079;Laerm;51042;49.696;10.808;2023-04-25T10:09:39;64.81;43.90;81.55;;
64079;Laerm;51042;49.696;10.808;2023-04-25T10:12:06;63.43;46.63;76.82;;
64079;Laerm;51042;49.696;10.808;2023-04-25T10:14:32;64.97;44.25;81.91;;
64079;Laerm;51042;49.696;10.808;2023-04-25T10:16:59;63.24;46.94;78.77;;
64079;Laerm;51042;49.696;10.808;2023-04-25T10:19:30;65.83;46.07;88.92;;
64079;Laerm;51042;49.696;10.808;2023-04-25T10:22:04;65.32;45.16;81.27;;
64079;Laerm;51042;49.696;10.808;2023-04-25T10:24:31;64.40;46.16;80.52;;
64079;Laerm;51042;49.696;10.808;2023-04-25T10:26:57;63.09;44.77;77.82;;
64079;Laerm;51042;49.696;10.808;2023-04-25T10:29:25;60.18;44.14;73.87;;
64079;Laerm;51042;49.696;10.808;2023-04-25T10:31:50;64.99;46.91;79.84;;
64079;Laerm;51042;49.696;10.808;2023-04-25T10:34:17;66.19;44.96;88.99;;
64079;Laerm;51042;49.696;10.808;2023-04-25T10:36:50;64.27;44.74;79.06;;
64079;Laerm;51042;49.696;10.808;2023-04-25T10:39:24;67.07;46.89;82.20;;
64079;Laerm;51042;49.696;10.808;2023-04-25T10:41:58;65.09;46.08;82.92;;
64079;Laerm;51042;49.696;10.808;2023-04-25T10:44:30;67.82;44.89;85.90;;
64079;Laerm;51042;49.696;10.808;2023-04-25T10:46:57;65.05;43.37;82.64;;
64079;Laerm;51042;49.696;10.808;2023-04-25T10:49:33;67.86;47.26;81.64;;
64079;Laerm;51042;49.696;10.808;2023-04-25T10:54:55;65.93;43.56;80.50;;
64079;Laerm;51042;49.696;10.808;2023-04-25T10:57:41;66.67;62.62;73.43;;
64079;Laerm;51042;49.696;10.808;2023-04-25T11:00:18;65.94;61.44;78.15;;
64079;Laerm;51042;49.696;10.808;2023-04-25T11:02:47;65.73;61.31;73.53;;
64079;Laerm;51042;49.696;10.808;2023-04-25T11:05:35;66.07;61.64;80.96;;
64079;Laerm;51042;49.696;10.808;2023-04-25T11:08:02;65.45;61.66;74.83;;
64079;Laerm;51042;49.696;10.808;2023-04-25T11:10:32;65.29;61.78;75.56;;
64079;Laerm;51042;49.696;10.808;2023-04-25T11:13:00;69.76;61.77;90.95;;
64079;Laerm;51042;49.696;10.808;2023-04-25T11:15:26;68.16;57.67;88.74;;
64079;Laerm;51042;49.696;10.808;2023-04-25T11:17:52;66.48;57.77;84.43;;
64079;Laerm;51042;49.696;10.808;2023-04-25T11:20:17;67.67;45.47;85.06;;
64079;Laerm;51042;49.696;10.808;2023-04-25T11:22:46;59.58;45.75;75.20;;
64079;Laerm;51042;49.696;10.808;2023-04-25T11:25:14;68.33;48.37;85.23;;
64079;Laerm;51042;49.696;10.808;2023-04-25T11:27:50;65.67;47.85;82.68;;
64079;Laerm;51042;49.696;10.808;2023-04-25T11:30:20;64.92;44.89;79.16;;
64079;Laerm;51042;49.696;10.808;2023-04-25T11:32:46;64.28;45.24;81.57;;
64079;Laerm;51042;49.696;10.808;2023-04-25T11:35:12;65.37;44.49;81.86;;
64079;Laerm;51042;49.696;10.808;2023-04-25T11:37:41;61.54;46.32;75.32;;
64079;Laerm;51042;49.696;10.808;2023-04-25T11:40:07;64.17;45.01;81.56;;
64079;Laerm;51042;49.696;10.808;2023-04-25T11:42:36;64.51;47.38;82.39;;
64079;Laerm;51042;49.696;10.808;2023-04-25T11:45:03;66.64;49.05;86.45;;
64079;Laerm;51042;49.696;10.808;2023-04-25T11:47:30;64.19;44.38;82.15;;
64079;Laerm;51042;49.696;10.808;2023-04-25T11:49:55;62.85;44.14;80.33;;
64079;Laerm;51042;49.696;10.808;2023-04-25T11:52:20;64.57;45.05;77.14;;
64079;Laerm;51042;49.696;10.808;2023-04-25T11:54:46;64.75;45.46;86.22;;
64079;Laerm;51042;49.696;10.808;2023-04-25T11:57:11;65.88;45.91;87.03;;
64079;Laerm;51042;49.696;10.808;2023-04-25T11:59:37;63.72;46.54;80.75;;
64079;Laerm;51042;49.696;10.808;2023-04-25T12:02:02;71.65;45.04;91.64;;
64079;Laerm;51042;49.696;10.808;2023-04-25T12:04:30;68.75;47.06;86.92;;
64079;Laerm;51042;49.696;10.808;2023-04-25T12:06:57;65.90;46.49;80.19;;
64079;Laerm;51042;49.696;10.808;2023-04-25T12:09:32;67.51;46.04;85.67;;
64079;Laerm;51042;49.696;10.808;2023-04-25T12:11:59;67.80;46.40;87.59;;
64079;Laerm;51042;49.696;10.808;2023-04-25T12:14:29;68.79;49.76;84.62;;
64079;Laerm;51042;49.696;10.808;2023-04-25T12:17:00;68.55;50.48;86.25;;
64079;Laerm;51042;49.696;10.808;2023-04-25T12:19:26;64.25;50.91;77.30;;
64079;Laerm;51042;49.696;10.808;2023-04-25T12:21:56;62.84;45.22;76.49;;
64079;Laerm;51042;49.696;10.808;2023-04-25T12:24:23;63.84;45.76;77.00;;
64079;Laerm;51042;49.696;10.808;2023-04-25T12:29:23;63.64;44.44;82.97;;
64079;Laerm;51042;49.696;10.808;2023-04-25T12:31:50;62.91;47.76;79.07;;
64079;Laerm;51042;49.696;10.808;2023-04-25T12:34:16;66.76;51.29;84.59;;
64079;Laerm;51042;49.696;10.808;2023-04-25T12:36:41;66.63;52.69;83.55;;
64079;Laerm;51042;49.696;10.808;2023-04-25T12:39:06;68.80;50.03;85.21;;
64079;Laerm;51042;49.696;10.808;2023-04-25T12:41:33;65.75;46.66;81.68;;
64079;Laerm;51042;49.696;10.808;2023-04-25T12:43:58;64.84;45.21;81.11;;
64079;Laerm;51042;49.696;10.808;2023-04-25T12:46:24;67.17;47.31;85.45;;
64079;Laerm;51042;49.696;10.808;2023-04-25T12:48:49;67.30;49.16;81.57;;
64079;Laerm;51042;49.696;10.808;2023-04-25T12:51:15;64.59;46.82;78.54;;
64079;Laerm;51042;49.696;10.808;2023-04-25T12:53:41;69.68;47.14;86.03;;
64079;Laerm;51042;49.696;10.808;2023-04-25T12:56:09;61.34;44.74;73.37;;
64079;Laerm;51042;49.696;10.808;2023-04-25T12:58:35;63.20;44.75;75.04;;
64079;Laerm;51042;49.696;10.808;2023-04-25T13:01:00;65.99;47.05;81.82;;
64079;Laerm;51042;49.696;10.808;2023-04-25T13:03:25;65.68;46.59;81.03;;
64079;Laerm;51042;49.696;10.808;2023-04-25T13:05:51;63.95;46.45;76.72;;
64079;Laerm;51042;49.696;10.808;2023-04-25T13:08:20;66.89;44.28;83.05;;
64079;Laerm;51042;49.696;10.808;2023-04-25T13:10:47;62.55;46.59;73.96;;
64079;Laerm;51042;49.696;10.808;2023-04-25T13:13:12;64.57;46.90;74.96;;
64079;Laerm;51042;49.696;10.808;2023-04-25T13:15:38;63.04;47.54;74.15;;
64079;Laerm;51042;49.696;10.808;2023-04-25T13:18:03;63.20;45.47;76.82;;
64079;Laerm;51042;49.696;10.808;2023-04-25T13:20:30;64.13;47.99;76.72;;
64079;Laerm;51042;49.696;10.808;2023-04-25T13:22:56;62.07;44.39;77.11;;
64079;Laerm;51042;49.696;10.808;2023-04-25T13:25:21;63.07;43.91;80.52;;
64079;Laerm;51042;49.696;10.808;2023-04-25T13:27:47;64.00;44.61;76.77;;
64079;Laerm;51042;49.696;10.808;2023-04-25T13:30:12;60.90;44.68;75.75;;
64079;Laerm;51042;49.696;10.808;2023-04-25T13:32:38;63.86;47.28;77.22;;